createdAt,value
2023-02-14T00:01:12.581Z,8.82
2023-02-14T00:03:39.965Z,8.20
2023-02-14T00:06:12.309Z,7.93
2023-02-14T00:08:41.137Z,7.80
2023-02-14T00:11:11.931Z,8.75
2023-02-14T00:13:39.310Z,9.05
2023-02-14T00:16:06.394Z,9.73
2023-02-14T00:18:51.811Z,7.97
2023-02-14T00:21:18.697Z,8.05
2023-02-14T00:23:45.910Z,9.10
2023-02-14T00:26:15.948Z,9.32
2023-02-14T00:28:43.307Z,9.35
2023-02-14T00:31:10.763Z,9.00
2023-02-14T00:33:38.271Z,8.88
2023-02-14T00:36:06.971Z,9.10
2023-02-14T00:38:33.995Z,9.50
2023-02-14T00:41:01.143Z,8.48
2023-02-14T00:43:28.294Z,9.63
2023-02-14T00:45:55.579Z,10.32
2023-02-14T00:48:22.832Z,10.50
2023-02-14T00:50:49.664Z,10.25
2023-02-14T00:53:16.898Z,10.02
2023-02-14T00:55:46.359Z,10.15
2023-02-14T00:58:13.730Z,9.95
2023-02-14T01:00:41.056Z,9.52
2023-02-14T01:03:08.288Z,10.63
2023-02-14T01:05:35.095Z,10.27
2023-02-14T01:08:02.319Z,9.10
2023-02-14T01:10:29.573Z,10.48
2023-02-14T01:12:56.681Z,8.70
2023-02-14T01:15:23.550Z,9.63
2023-02-14T01:17:50.800Z,9.90
2023-02-14T01:20:18.090Z,11.05
2023-02-14T01:22:44.904Z,9.55
2023-02-14T01:25:11.815Z,9.18
2023-02-14T01:27:39.217Z,10.45
2023-02-14T01:30:06.774Z,9.25
2023-02-14T01:32:34.559Z,8.98
2023-02-14T01:35:01.782Z,9.90
2023-02-14T01:37:30.734Z,10.10
2023-02-14T01:39:57.607Z,11.48
2023-02-14T01:42:24.873Z,10.40
2023-02-14T01:45:19.477Z,10.45
2023-02-14T01:47:51.871Z,9.10
2023-02-14T01:50:23.776Z,10.55
2023-02-14T01:52:57.962Z,11.48
2023-02-14T01:55:30.266Z,11.23
2023-02-14T01:58:05.170Z,10.93
2023-02-14T02:00:51.277Z,13.07
2023-02-14T02:03:20.132Z,12.13
2023-02-14T02:05:54.144Z,12.52
2023-02-14T02:08:21.427Z,11.57
2023-02-14T02:10:48.257Z,11.80
2023-02-14T02:13:20.721Z,11.68
2023-02-14T02:16:12.684Z,11.75
2023-02-14T02:19:09.628Z,12.10
2023-02-14T02:22:21.718Z,11.52
2023-02-14T02:25:16.428Z,12.75
2023-02-14T02:27:54.516Z,11.68
2023-02-14T02:30:44.263Z,11.88
2023-02-14T02:33:35.183Z,12.48
2023-02-14T02:36:23.088Z,13.00
2023-02-14T02:39:17.626Z,12.75
2023-02-14T02:41:44.875Z,13.55
2023-02-14T02:44:34.857Z,14.02
2023-02-14T02:47:31.447Z,14.43
2023-02-14T02:50:41.845Z,13.18
2023-02-14T02:53:30.422Z,14.15
2023-02-14T02:56:31.565Z,14.48
2023-02-14T02:59:05.409Z,13.35
2023-02-14T03:01:38.156Z,13.85
2023-02-14T03:04:29.851Z,14.20
2023-02-14T03:06:58.780Z,14.77
2023-02-14T03:09:28.417Z,13.48
2023-02-14T03:12:12.850Z,14.07
2023-02-14T03:15:07.031Z,14.35
2023-02-14T03:17:41.072Z,13.73
2023-02-14T03:20:15.132Z,13.77
2023-02-14T03:23:08.821Z,14.02
2023-02-14T03:25:53.533Z,13.82
2023-02-14T03:28:21.190Z,13.38
2023-02-14T03:31:07.999Z,12.57
2023-02-14T03:33:54.286Z,14.05
2023-02-14T03:36:29.642Z,13.93
2023-02-14T03:39:20.937Z,13.27
2023-02-14T03:41:56.854Z,14.65
2023-02-14T03:44:28.550Z,13.77
2023-02-14T03:47:23.346Z,13.73
2023-02-14T03:50:07.406Z,13.13
2023-02-14T03:52:36.765Z,12.75
2023-02-14T03:55:06.534Z,12.90
2023-02-14T03:58:06.327Z,12.75
2023-02-14T04:00:36.787Z,12.02
2023-02-14T04:03:11.914Z,13.73
2023-02-14T04:05:43.911Z,11.15
2023-02-14T04:08:12.649Z,11.88
2023-02-14T04:10:41.960Z,11.55
2023-02-14T04:13:08.794Z,12.55
2023-02-14T04:15:36.120Z,12.35
2023-02-14T04:18:21.828Z,11.13
2023-02-14T04:20:49.091Z,12.07
2023-02-14T04:23:15.882Z,11.27
2023-02-14T04:25:43.131Z,11.23
2023-02-14T04:28:10.406Z,11.60
2023-02-14T04:30:37.270Z,10.98
2023-02-14T04:33:04.954Z,11.23
2023-02-14T04:35:32.055Z,11.75
2023-02-14T04:37:58.910Z,10.43
2023-02-14T04:40:26.122Z,11.73
2023-02-14T04:42:53.461Z,11.18
2023-02-14T04:45:20.373Z,10.93
2023-02-14T04:47:47.647Z,10.32
2023-02-14T04:50:14.673Z,10.50
2023-02-14T04:52:42.152Z,11.27
2023-02-14T04:55:09.756Z,11.63
2023-02-14T04:57:37.632Z,10.65
2023-02-14T05:00:05.267Z,11.02
2023-02-14T05:02:32.485Z,10.57
2023-02-14T05:04:59.789Z,11.60
2023-02-14T05:07:27.112Z,11.68
2023-02-14T05:09:54.357Z,12.00
2023-02-14T05:12:21.598Z,11.90
2023-02-14T05:14:48.842Z,13.32
2023-02-14T05:17:15.666Z,12.55
2023-02-14T05:19:44.665Z,13.50
2023-02-14T05:22:11.485Z,13.88
2023-02-14T05:24:38.757Z,13.75
2023-02-14T05:27:06.026Z,13.43
2023-02-14T05:29:32.862Z,13.32
2023-02-14T05:32:00.234Z,12.98
2023-02-14T05:34:27.602Z,12.60
2023-02-14T05:36:55.017Z,12.98
2023-02-14T05:39:21.918Z,13.10
2023-02-14T05:41:49.203Z,11.40
2023-02-14T05:44:16.573Z,13.48
2023-02-14T05:46:43.803Z,13.48
2023-02-14T05:49:11.040Z,12.23
2023-02-14T05:51:37.840Z,13.48
2023-02-14T05:54:05.117Z,12.40
2023-02-14T05:56:32.339Z,13.18
2023-02-14T05:58:59.187Z,12.50
2023-02-14T06:01:26.424Z,12.57
2023-02-14T06:03:53.284Z,12.52
2023-02-14T06:06:20.656Z,12.25
2023-02-14T06:08:47.535Z,11.93
2023-02-14T06:11:15.370Z,12.00
2023-02-14T06:13:42.665Z,12.77
2023-02-14T06:16:09.522Z,12.82
2023-02-14T06:18:36.834Z,12.93
2023-02-14T06:21:04.213Z,13.00
2023-02-14T06:23:31.408Z,13.27
2023-02-14T06:25:58.286Z,12.65
2023-02-14T06:28:25.500Z,12.88
2023-02-14T06:30:52.885Z,13.25
2023-02-14T06:33:19.827Z,13.25
2023-02-14T06:35:47.127Z,13.18
2023-02-14T06:38:14.326Z,12.90
2023-02-14T06:40:41.596Z,12.57
2023-02-14T06:43:08.873Z,12.68
2023-02-14T06:45:35.697Z,12.43
2023-02-14T06:48:03.843Z,12.40
2023-02-14T06:50:30.696Z,14.02
2023-02-14T06:52:57.957Z,12.95
2023-02-14T06:55:24.955Z,13.63
2023-02-14T06:57:52.232Z,12.55
2023-02-14T07:00:19.848Z,13.27
2023-02-14T07:02:47.237Z,14.05
2023-02-14T07:05:16.306Z,13.05
2023-02-14T07:07:43.514Z,12.48
2023-02-14T07:10:10.695Z,13.18
2023-02-14T07:12:39.629Z,12.32
2023-02-14T07:15:11.404Z,13.43
2023-02-14T07:17:38.816Z,12.63
2023-02-14T07:20:07.337Z,12.90
2023-02-14T07:22:35.055Z,12.30
2023-02-14T07:25:02.156Z,13.10
2023-02-14T07:27:29.473Z,14.05
2023-02-14T07:29:56.477Z,12.18
2023-02-14T07:32:23.883Z,12.75
2023-02-14T07:34:51.327Z,11.10
2023-02-14T07:37:19.308Z,11.55
2023-02-14T07:39:46.348Z,11.40
2023-02-14T07:42:13.370Z,10.63
2023-02-14T07:44:40.720Z,11.93
2023-02-14T07:47:08.218Z,12.02
2023-02-14T07:49:36.078Z,11.25
2023-02-14T07:52:03.795Z,9.88
2023-02-14T07:54:30.773Z,11.48
2023-02-14T07:56:58.057Z,12.23
2023-02-14T07:59:26.066Z,10.93
2023-02-14T08:01:53.519Z,12.40
2023-02-14T08:04:20.513Z,11.82
2023-02-14T08:06:48.052Z,11.00
2023-02-14T08:09:24.675Z,10.95
2023-02-14T08:12:25.926Z,13.70
2023-02-14T08:14:53.193Z,15.07
2023-02-14T08:17:20.469Z,11.93
2023-02-14T08:19:47.294Z,10.95
2023-02-14T08:22:14.543Z,11.43
2023-02-14T08:24:41.390Z,10.75
2023-02-14T08:27:08.937Z,11.07
2023-02-14T08:29:35.858Z,10.82
2023-02-14T08:32:03.207Z,11.60
2023-02-14T08:34:30.610Z,10.15
2023-02-14T08:36:57.837Z,10.57
2023-02-14T08:39:25.102Z,11.57
2023-02-14T08:41:52.194Z,10.95
2023-02-14T08:44:20.237Z,11.63
2023-02-14T08:46:47.474Z,11.50
2023-02-14T08:49:14.424Z,11.07
2023-02-14T08:51:41.260Z,11.02
2023-02-14T08:54:08.166Z,10.90
2023-02-14T08:56:36.624Z,11.70
2023-02-14T08:59:04.123Z,13.55
2023-02-14T09:01:31.057Z,12.10
2023-02-14T09:03:58.159Z,11.10
2023-02-14T09:06:25.473Z,11.98
2023-02-14T09:08:55.150Z,11.25
2023-02-14T09:11:25.094Z,13.50
2023-02-14T09:13:53.441Z,10.65
2023-02-14T09:16:21.918Z,10.82
2023-02-14T09:18:49.354Z,26.75
2023-02-14T09:21:18.736Z,12.60
2023-02-14T09:23:45.647Z,12.65
2023-02-14T09:26:14.217Z,12.80
2023-02-14T09:28:41.585Z,12.15
2023-02-14T09:31:18.190Z,12.18
2023-02-14T09:34:05.252Z,11.73
2023-02-14T09:36:51.002Z,11.68
2023-02-14T09:39:18.207Z,12.80
2023-02-14T09:42:01.062Z,13.85
2023-02-14T09:44:39.804Z,13.18
2023-02-14T09:47:35.609Z,13.88
2023-02-14T09:50:06.525Z,14.32
2023-02-14T09:52:33.689Z,13.88
2023-02-14T09:55:03.068Z,14.13
2023-02-14T09:57:39.534Z,13.82
2023-02-14T10:00:21.279Z,12.27
2023-02-14T10:03:14.706Z,14.38
2023-02-14T10:05:53.967Z,12.80
2023-02-14T10:08:41.541Z,13.02
2023-02-14T10:11:17.176Z,13.35
2023-02-14T10:13:52.152Z,13.43
2023-02-14T10:16:27.187Z,13.55
2023-02-14T10:19:06.022Z,13.57
2023-02-14T10:21:47.114Z,13.20
2023-02-14T10:24:21.009Z,21.38
2023-02-14T10:29:18.692Z,12.30
2023-02-14T10:32:03.337Z,13.40
2023-02-14T10:34:46.804Z,12.20
2023-02-14T10:40:34.586Z,11.70
2023-02-14T10:43:15.514Z,14.75
2023-02-14T10:45:58.205Z,14.85
2023-02-14T10:49:05.836Z,15.93
2023-02-14T10:52:05.193Z,17.10
2023-02-14T10:54:53.085Z,16.15
2023-02-14T10:57:38.393Z,16.20
2023-02-14T11:00:06.824Z,18.35
2023-02-14T11:02:41.456Z,23.42
2023-02-14T11:05:40.111Z,18.95
2023-02-14T11:08:34.348Z,17.48
2023-02-14T11:11:41.389Z,16.90
2023-02-14T11:14:25.108Z,15.88
2023-02-14T11:16:54.416Z,15.68
2023-02-14T11:19:37.193Z,16.38
2023-02-14T11:22:05.063Z,16.77
2023-02-14T11:24:38.228Z,17.08
2023-02-14T11:29:41.511Z,15.68
2023-02-14T11:32:15.763Z,15.20
2023-02-14T11:34:54.754Z,16.60
2023-02-14T11:37:28.808Z,16.38
2023-02-14T11:39:59.104Z,14.77
2023-02-14T11:43:02.138Z,15.02
2023-02-14T11:45:40.240Z,15.73
2023-02-14T11:48:37.085Z,15.23
2023-02-14T11:51:11.294Z,15.52
2023-02-14T11:53:46.764Z,13.75
2023-02-14T11:56:16.361Z,15.02
2023-02-14T11:58:59.437Z,16.23
2023-02-14T12:01:30.864Z,15.68
2023-02-14T12:04:20.181Z,14.63
2023-02-14T12:06:47.368Z,15.43
2023-02-14T12:09:23.410Z,17.25
2023-02-14T12:11:59.182Z,16.27
2023-02-14T12:14:31.564Z,15.75
2023-02-14T12:17:13.543Z,16.15
2023-02-14T12:19:46.160Z,16.88
2023-02-14T12:22:21.858Z,17.05
2023-02-14T12:24:59.185Z,17.73
2023-02-14T12:27:31.320Z,17.13
2023-02-14T12:30:14.377Z,16.55
2023-02-14T12:32:50.358Z,17.17
2023-02-14T12:35:18.928Z,15.57
2023-02-14T12:38:08.275Z,17.02
2023-02-14T12:40:44.266Z,16.77
2023-02-14T12:43:50.822Z,17.75
2023-02-14T12:46:23.995Z,15.60
2023-02-14T12:52:04.035Z,16.08
2023-02-14T12:54:57.527Z,16.30
2023-02-14T12:57:36.083Z,16.75
2023-02-14T13:00:19.037Z,17.33
2023-02-14T13:03:04.456Z,17.25
2023-02-14T13:05:49.767Z,16.33
2023-02-14T13:08:34.089Z,17.60
2023-02-14T13:11:06.606Z,16.65
2023-02-14T13:14:04.605Z,17.95
2023-02-14T13:16:48.876Z,18.38
2023-02-14T13:19:42.520Z,18.30
2023-02-14T13:24:42.632Z,16.88
2023-02-14T13:27:16.166Z,19.48
2023-02-14T13:29:50.994Z,20.33
2023-02-14T13:32:22.762Z,17.90
2023-02-14T13:34:50.732Z,18.15
2023-02-14T13:37:23.675Z,19.30
2023-02-14T13:40:03.804Z,18.23
2023-02-14T13:42:49.875Z,19.23
2023-02-14T13:45:40.703Z,20.58
2023-02-14T13:48:12.017Z,18.20
2023-02-14T13:50:49.614Z,17.60
2023-02-14T13:53:47.724Z,18.17
2023-02-14T13:56:17.971Z,17.30
2023-02-14T13:58:56.938Z,18.15
2023-02-14T14:01:29.376Z,17.88
2023-02-14T14:04:06.536Z,18.25
2023-02-14T14:07:01.290Z,18.75
2023-02-14T14:09:43.798Z,19.25
2023-02-14T14:12:30.842Z,20.50
2023-02-14T14:15:07.204Z,19.70
2023-02-14T14:17:39.490Z,19.98
2023-02-14T14:20:21.438Z,21.58
2023-02-14T14:22:51.062Z,23.55
2023-02-14T14:25:37.457Z,24.58
2023-02-14T14:28:22.000Z,23.25
2023-02-14T14:30:49.299Z,25.67
2023-02-14T14:33:25.475Z,25.73
2023-02-14T14:35:58.311Z,24.33
2023-02-14T14:38:26.986Z,26.65
2023-02-14T14:40:54.784Z,26.77
2023-02-14T14:43:34.843Z,26.48
2023-02-14T14:46:03.316Z,26.15
2023-02-14T14:48:35.534Z,27.08
2023-02-14T14:51:05.784Z,27.90
2023-02-14T14:53:45.507Z,25.40
2023-02-14T14:56:18.286Z,26.55
2023-02-14T14:58:45.548Z,25.05
2023-02-14T15:01:27.235Z,26.13
2023-02-14T15:03:54.967Z,24.83
2023-02-14T15:06:22.692Z,24.77
2023-02-14T15:08:51.364Z,23.15
2023-02-14T15:11:43.186Z,24.52
2023-02-14T15:14:22.800Z,26.98
2023-02-14T15:16:58.032Z,27.15
2023-02-14T15:19:33.501Z,25.92
2023-02-14T15:22:23.213Z,26.33
2023-02-14T15:24:51.982Z,28.27
2023-02-14T15:27:24.493Z,24.08
2023-02-14T15:30:01.236Z,26.45
2023-02-14T15:32:32.588Z,28.38
2023-02-14T15:35:02.564Z,26.70
2023-02-14T15:37:30.105Z,27.33
2023-02-14T15:39:57.975Z,29.55
2023-02-14T15:42:26.024Z,29.33
2023-02-14T15:45:14.537Z,29.35
2023-02-14T15:47:43.388Z,29.83
2023-02-14T15:50:27.953Z,28.25
2023-02-14T15:53:21.893Z,29.13
2023-02-14T15:55:50.379Z,30.70
2023-02-14T15:58:23.755Z,32.00
2023-02-14T16:00:52.179Z,31.73
2023-02-14T16:03:25.308Z,33.03
2023-02-14T16:08:33.807Z,28.70
2023-02-14T16:11:26.836Z,30.25
2023-02-14T16:13:54.256Z,30.88
2023-02-14T16:16:21.743Z,30.75
2023-02-14T16:18:53.118Z,29.55
2023-02-14T16:21:21.353Z,29.67
2023-02-14T16:24:11.100Z,32.67
2023-02-14T16:26:38.698Z,46.15
2023-02-14T16:29:07.631Z,32.67
2023-02-14T16:31:35.293Z,30.65
2023-02-14T16:34:02.248Z,31.60
2023-02-14T16:36:33.861Z,30.08
2023-02-14T16:39:05.145Z,33.67
2023-02-14T16:41:34.004Z,33.55
2023-02-14T16:44:00.944Z,31.98
2023-02-14T16:46:32.420Z,32.35
2023-02-14T16:48:59.393Z,32.15
2023-02-14T16:51:29.508Z,30.88
2023-02-14T16:53:59.425Z,33.60
2023-02-14T16:56:51.255Z,34.20
2023-02-14T16:59:18.122Z,33.08
2023-02-14T17:01:45.074Z,32.85
2023-02-14T17:04:12.484Z,33.42
2023-02-14T17:06:43.259Z,33.75
2023-02-14T17:09:13.156Z,33.25
2023-02-14T17:11:45.285Z,34.25
2023-02-14T17:14:18.277Z,32.75
2023-02-14T17:16:45.254Z,30.65
2023-02-14T17:19:12.433Z,32.08
2023-02-14T17:21:39.913Z,31.23
2023-02-14T17:24:07.093Z,30.85
2023-02-14T17:26:34.014Z,32.38
2023-02-14T17:29:01.328Z,33.05
2023-02-14T17:31:28.990Z,33.35
2023-02-14T17:33:56.383Z,32.92
2023-02-14T17:36:26.495Z,33.10
2023-02-14T17:38:54.515Z,36.67
2023-02-14T17:41:26.352Z,33.70
2023-02-14T17:43:54.975Z,31.42
2023-02-14T17:46:22.276Z,34.50
2023-02-14T17:48:49.920Z,35.22
2023-02-14T17:51:20.429Z,36.97
2023-02-14T17:53:48.461Z,33.25
2023-02-14T17:56:19.385Z,32.17
2023-02-14T17:58:51.458Z,33.97
2023-02-14T18:01:23.983Z,33.92
2023-02-14T18:03:53.852Z,33.72
2023-02-14T18:06:21.460Z,33.22
2023-02-14T18:08:50.536Z,32.67
2023-02-14T18:11:18.771Z,34.92
2023-02-14T18:13:46.043Z,33.90
2023-02-14T18:16:16.161Z,34.65
2023-02-14T18:18:43.475Z,34.25
2023-02-14T18:21:12.202Z,33.67
2023-02-14T18:23:39.858Z,32.58
2023-02-14T18:26:10.581Z,32.30
2023-02-14T18:28:37.839Z,31.35
2023-02-14T18:31:16.080Z,33.42
2023-02-14T18:33:43.799Z,33.58
2023-02-14T18:36:14.013Z,32.45
2023-02-14T18:38:42.845Z,34.28
2023-02-14T18:41:11.963Z,34.67
2023-02-14T18:43:41.050Z,36.05
2023-02-14T18:46:10.814Z,35.67
2023-02-14T18:48:37.979Z,35.65
2023-02-14T18:51:05.942Z,36.03
2023-02-14T18:53:33.327Z,36.60
2023-02-14T18:56:06.998Z,36.45
2023-02-14T18:58:34.688Z,33.38
2023-02-14T19:01:13.185Z,36.47
2023-02-14T19:03:40.765Z,36.50
2023-02-14T19:06:09.339Z,37.40
2023-02-14T19:08:39.424Z,37.90
2023-02-14T19:11:14.621Z,38.88
2023-02-14T19:13:46.509Z,38.08
2023-02-14T19:16:16.705Z,38.65
2023-02-14T19:18:44.149Z,37.53
2023-02-14T19:21:24.186Z,37.58
2023-02-14T19:23:53.019Z,38.08
2023-02-14T19:26:23.348Z,37.58
2023-02-14T19:28:55.037Z,37.42
2023-02-14T19:31:22.394Z,34.97
2023-02-14T19:33:49.315Z,36.17
2023-02-14T19:36:18.892Z,34.83
2023-02-14T19:38:49.152Z,35.72
2023-02-14T19:41:18.916Z,35.85
2023-02-14T19:43:46.733Z,36.03
2023-02-14T19:46:14.521Z,37.47
2023-02-14T19:48:42.139Z,38.75
2023-02-14T19:51:14.025Z,37.55
2023-02-14T19:53:44.068Z,36.15
2023-02-14T19:56:11.396Z,35.25
2023-02-14T19:58:39.018Z,34.40
2023-02-14T20:01:06.419Z,38.35
2023-02-14T20:03:34.106Z,36.45
2023-02-14T20:06:01.451Z,37.88
2023-02-14T20:08:28.714Z,37.70
2023-02-14T20:10:55.890Z,36.50
2023-02-14T20:13:23.096Z,36.40
2023-02-14T20:15:50.338Z,37.85
2023-02-14T20:18:17.499Z,36.70
2023-02-14T20:21:03.102Z,38.38
2023-02-14T20:23:30.512Z,36.38
2023-02-14T20:25:57.385Z,35.08
2023-02-14T20:28:24.998Z,36.13
2023-02-14T20:30:52.262Z,35.60
2023-02-14T20:33:19.113Z,33.60
2023-02-14T20:35:46.496Z,33.45
2023-02-14T20:38:13.738Z,36.03
2023-02-14T20:40:44.595Z,32.47
2023-02-14T20:43:12.249Z,33.25
2023-02-14T20:45:39.446Z,33.33
2023-02-14T20:48:08.065Z,34.72
2023-02-14T20:50:36.045Z,34.15
2023-02-14T20:53:05.643Z,31.98
2023-02-14T20:55:32.970Z,32.53
2023-02-14T20:58:02.469Z,31.10
2023-02-14T21:00:30.095Z,32.45
2023-02-14T21:02:57.838Z,33.13
2023-02-14T21:05:25.296Z,32.85
2023-02-14T21:07:52.284Z,32.00
2023-02-14T21:10:19.760Z,31.45
2023-02-14T21:12:48.680Z,32.38
2023-02-14T21:15:15.936Z,32.95
2023-02-14T21:17:42.767Z,32.47
2023-02-14T21:20:10.722Z,31.15
2023-02-14T21:22:38.435Z,31.35
2023-02-14T21:25:08.315Z,30.70
2023-02-14T21:27:35.276Z,34.90
2023-02-14T21:30:03.685Z,31.23
2023-02-14T21:32:30.556Z,30.95
2023-02-14T21:34:57.850Z,31.40
2023-02-14T21:37:24.978Z,30.73
2023-02-14T21:39:52.203Z,29.77
2023-02-14T21:42:21.187Z,31.40
2023-02-14T21:45:08.964Z,31.10
2023-02-14T21:47:39.862Z,61.95
2023-02-14T21:50:27.232Z,31.05
2023-02-14T21:52:54.486Z,28.92
2023-02-14T21:55:21.354Z,31.15
2023-02-14T21:57:48.163Z,30.98
2023-02-14T22:00:15.344Z,32.03
2023-02-14T22:02:42.225Z,30.08
2023-02-14T22:05:09.113Z,29.23
2023-02-14T22:07:36.414Z,31.15
2023-02-14T22:10:03.685Z,30.35
2023-02-14T22:12:31.025Z,30.30
2023-02-14T22:15:00.359Z,30.80
2023-02-14T22:17:28.003Z,31.55
2023-02-14T22:19:54.974Z,29.13
2023-02-14T22:22:22.668Z,30.40
2023-02-14T22:24:50.056Z,30.17
2023-02-14T22:27:17.292Z,33.63
2023-02-14T22:29:44.574Z,31.20
2023-02-14T22:32:11.941Z,29.58
2023-02-14T22:34:39.283Z,29.83
2023-02-14T22:37:06.509Z,32.25
2023-02-14T22:39:33.824Z,31.58
2023-02-14T22:42:05.316Z,31.00
2023-02-14T22:44:32.556Z,31.80
2023-02-14T22:46:59.504Z,30.80
2023-02-14T22:49:26.743Z,29.98
2023-02-14T22:51:54.068Z,31.02
2023-02-14T22:54:20.976Z,29.92
2023-02-14T22:56:50.177Z,30.80
2023-02-14T22:59:23.884Z,30.02
2023-02-14T23:01:52.400Z,30.42
2023-02-14T23:04:21.771Z,30.15
2023-02-14T23:06:49.324Z,29.55
2023-02-14T23:09:16.952Z,31.17
2023-02-14T23:11:45.680Z,29.27
2023-02-14T23:14:33.629Z,29.10
2023-02-14T23:17:16.246Z,32.58
2023-02-14T23:20:03.217Z,30.98
2023-02-14T23:22:32.003Z,29.42
2023-02-14T23:25:01.613Z,29.42
2023-02-14T23:27:47.316Z,31.08
2023-02-14T23:30:16.608Z,30.00
2023-02-14T23:32:43.816Z,29.90
2023-02-14T23:35:11.617Z,33.97
2023-02-14T23:37:38.539Z,29.33
2023-02-14T23:40:06.760Z,29.02
2023-02-14T23:42:34.015Z,28.60
2023-02-14T23:45:20.978Z,29.42
2023-02-14T23:47:48.438Z,29.05
2023-02-14T23:50:15.644Z,29.25
2023-02-14T23:52:44.500Z,27.50
2023-02-14T23:55:11.460Z,28.40
2023-02-14T23:57:38.752Z,28.65
